createdAt,value
2023-05-25T00:03:04.700Z,3.40
2023-05-25T00:08:06.433Z,3.63
2023-05-25T00:13:08.100Z,3.90
2023-05-25T00:18:09.834Z,3.67
2023-05-25T00:23:11.753Z,4.33
2023-05-25T00:28:13.473Z,3.80
2023-05-25T00:33:16.031Z,4.17
2023-05-25T00:38:18.994Z,3.93
2023-05-25T00:43:20.841Z,5.53
2023-05-25T00:48:24.298Z,4.43
2023-05-25T00:53:26.536Z,4.20
2023-05-25T00:58:33.421Z,4.10
2023-05-25T01:03:38.000Z,4.03
2023-05-25T01:08:44.411Z,4.20
2023-05-25T01:13:46.840Z,3.83
2023-05-25T01:18:48.553Z,3.80
2023-05-25T01:24:02.756Z,4.03
2023-05-25T01:29:06.509Z,4.10
2023-05-25T01:34:08.824Z,4.10
2023-05-25T01:39:11.345Z,4.10
2023-05-25T01:44:13.149Z,5.73
2023-05-25T01:49:29.599Z,4.70
2023-05-25T01:54:38.018Z,4.17
2023-05-25T01:59:43.475Z,4.53
2023-05-25T02:04:46.197Z,4.37
2023-05-25T02:09:47.979Z,4.00
2023-05-25T02:14:49.727Z,5.00
2023-05-25T02:19:53.278Z,4.80
2023-05-25T02:24:55.056Z,4.43
2023-05-25T02:29:56.700Z,4.87
2023-05-25T02:34:58.421Z,4.30
2023-05-25T02:40:00.065Z,4.67
2023-05-25T02:45:01.911Z,4.40
2023-05-25T02:50:04.625Z,4.57
2023-05-25T02:55:06.893Z,4.53
2023-05-25T03:00:11.207Z,5.53
2023-05-25T03:05:12.844Z,5.27
2023-05-25T03:10:14.492Z,4.70
2023-05-25T03:15:17.096Z,4.57
2023-05-25T03:20:20.884Z,4.07
2023-05-25T03:25:22.766Z,4.53
2023-05-25T03:30:24.718Z,4.77
2023-05-25T03:35:26.535Z,5.07
2023-05-25T03:40:28.228Z,4.80
2023-05-25T03:45:29.925Z,4.83
2023-05-25T03:50:31.698Z,4.57
2023-05-25T03:55:34.033Z,4.23
2023-05-25T04:00:36.631Z,4.20
2023-05-25T04:05:38.663Z,4.50
2023-05-25T04:10:40.456Z,4.83
2023-05-25T04:15:42.421Z,4.83
2023-05-25T04:20:46.793Z,4.33
2023-05-25T04:25:51.152Z,4.70
2023-05-25T04:30:57.182Z,4.50
2023-05-25T04:35:59.551Z,4.23
2023-05-25T04:41:02.314Z,4.30
2023-05-25T04:46:05.175Z,4.10
2023-05-25T04:51:07.688Z,4.60
2023-05-25T04:56:09.605Z,4.30
2023-05-25T05:05:26.853Z,4.17
2023-05-25T05:10:28.477Z,4.70
2023-05-25T05:15:30.260Z,4.07
2023-05-25T05:20:32.032Z,4.80
2023-05-25T05:25:33.783Z,4.10
2023-05-25T05:30:35.512Z,4.27
2023-05-25T05:35:37.239Z,4.23
2023-05-25T05:40:38.897Z,4.17
2023-05-25T05:45:41.285Z,4.37
2023-05-25T05:50:43.093Z,3.83
2023-05-25T05:55:44.987Z,4.00
2023-05-25T06:00:47.292Z,4.23
2023-05-25T06:05:49.250Z,4.30
2023-05-25T06:10:51.041Z,3.70
2023-05-25T06:15:52.860Z,4.00
2023-05-25T06:20:54.575Z,4.10
2023-05-25T06:25:56.420Z,3.87
2023-05-25T06:30:58.710Z,4.20
2023-05-25T06:36:00.825Z,4.40
2023-05-25T06:41:04.855Z,4.20
2023-05-25T06:46:06.586Z,3.97
2023-05-25T06:51:08.288Z,4.37
2023-05-25T06:56:09.973Z,3.90
2023-05-25T07:01:11.681Z,4.27
2023-05-25T07:06:13.401Z,4.30
2023-05-25T07:11:15.099Z,3.83
2023-05-25T07:16:16.951Z,5.17
2023-05-25T07:21:18.685Z,4.50
2023-05-25T07:26:23.062Z,4.70
2023-05-25T07:31:24.909Z,4.80
2023-05-25T07:36:26.613Z,4.30
2023-05-25T07:41:28.328Z,4.17
2023-05-25T07:46:29.972Z,4.70
2023-05-25T07:51:33.002Z,5.07
2023-05-25T07:56:34.760Z,4.20
2023-05-25T08:01:36.853Z,4.30
2023-05-25T08:06:38.603Z,4.70
2023-05-25T08:11:40.607Z,4.77
2023-05-25T08:16:42.242Z,4.70
2023-05-25T08:21:44.032Z,5.17
2023-05-25T08:26:54.947Z,4.90
2023-05-25T08:31:57.300Z,5.00
2023-05-25T08:36:58.976Z,4.40
2023-05-25T08:42:00.931Z,4.47
2023-05-25T08:47:09.721Z,4.50
2023-05-25T08:52:14.829Z,4.70
2023-05-25T08:57:54.906Z,4.70
2023-05-25T09:03:10.809Z,4.90
2023-05-25T09:08:13.817Z,4.60
2023-05-25T09:18:21.044Z,4.90
2023-05-25T09:23:23.007Z,4.10
2023-05-25T09:28:27.556Z,4.30
2023-05-25T09:33:29.658Z,4.70
2023-05-25T09:38:31.806Z,5.13
2023-05-25T09:48:42.042Z,4.80
2023-05-25T09:53:43.904Z,4.50
2023-05-25T09:58:45.951Z,4.87
2023-05-25T10:04:04.138Z,4.80
2023-05-25T10:09:11.523Z,4.23
2023-05-25T10:14:17.604Z,4.40
2023-05-25T10:19:24.362Z,4.07
2023-05-25T10:24:52.819Z,4.07
2023-05-25T10:29:56.590Z,4.33
2023-05-25T10:35:00.652Z,3.83
2023-05-25T10:40:03.618Z,4.50
2023-05-25T10:45:08.255Z,3.80
2023-05-25T10:50:24.573Z,3.97
2023-05-25T10:55:31.575Z,4.22
2023-05-25T11:06:40.483Z,4.55
2023-05-25T11:11:42.164Z,4.40
2023-05-25T11:16:44.037Z,4.28
2023-05-25T11:21:45.975Z,4.22
2023-05-25T11:27:01.040Z,3.97
2023-05-25T11:32:03.554Z,3.90
2023-05-25T11:37:05.408Z,4.28
2023-05-25T11:42:11.188Z,4.50
2023-05-25T11:47:22.896Z,4.47
2023-05-25T11:52:25.053Z,4.20
2023-05-25T11:57:26.801Z,3.90
2023-05-25T12:02:37.159Z,4.07
2023-05-25T12:07:46.926Z,4.28
2023-05-25T12:12:51.583Z,4.35
2023-05-25T12:17:54.466Z,4.30
2023-05-25T12:22:57.859Z,4.15
2023-05-25T12:28:15.807Z,4.13
2023-05-25T12:33:17.692Z,4.20
2023-05-25T12:38:21.980Z,4.50
2023-05-25T12:43:24.084Z,4.15
2023-05-25T12:48:26.813Z,4.00
2023-05-25T12:53:29.212Z,4.18
2023-05-25T12:58:30.956Z,4.25
2023-05-25T13:03:33.161Z,4.65
2023-05-25T13:08:34.820Z,3.95
2023-05-25T13:13:37.483Z,4.07
2023-05-25T13:18:39.170Z,3.80
2023-05-25T13:23:41.009Z,4.30
2023-05-25T13:28:42.659Z,4.68
2023-05-25T13:33:44.348Z,3.72
2023-05-25T13:38:46.424Z,3.80
2023-05-25T13:43:48.377Z,4.50
2023-05-25T13:48:50.466Z,3.92
2023-05-25T13:53:53.671Z,3.25
2023-05-25T13:58:55.435Z,4.00
2023-05-25T14:03:58.323Z,4.68
2023-05-25T14:09:00.349Z,3.92
2023-05-25T14:14:02.196Z,3.38
2023-05-25T14:19:04.849Z,3.38
2023-05-25T14:24:06.847Z,3.78
2023-05-25T14:29:09.063Z,3.60
2023-05-25T14:34:11.569Z,3.95
2023-05-25T14:39:15.733Z,4.00
2023-05-25T14:44:18.888Z,4.00
2023-05-25T14:49:24.852Z,3.50
2023-05-25T14:54:26.632Z,3.63
2023-05-25T14:59:28.364Z,3.97
2023-05-25T15:04:31.658Z,3.42
2023-05-25T15:09:34.049Z,4.15
2023-05-25T15:14:39.889Z,4.00
2023-05-25T15:19:41.566Z,3.90
2023-05-25T15:24:43.233Z,4.28
2023-05-25T15:29:45.992Z,3.50
2023-05-25T15:34:47.699Z,3.47
2023-05-25T15:39:49.374Z,3.30
2023-05-25T15:44:51.004Z,3.53
2023-05-25T15:49:52.750Z,3.40
2023-05-25T15:54:54.365Z,3.75
2023-05-25T15:59:56.097Z,3.78
2023-05-25T16:04:57.839Z,3.60
2023-05-25T16:09:59.565Z,3.40
2023-05-25T16:15:01.258Z,3.90
2023-05-25T16:20:03.042Z,3.72
2023-05-25T16:25:05.093Z,3.50
2023-05-25T16:30:07.317Z,2.90
2023-05-25T16:35:09.309Z,3.33
2023-05-25T16:40:11.410Z,3.58
2023-05-25T16:45:13.212Z,3.60
2023-05-25T16:50:15.114Z,3.45
2023-05-25T16:55:16.829Z,3.20
2023-05-25T17:00:18.707Z,3.22
2023-05-25T17:05:20.366Z,3.33
2023-05-25T17:10:22.072Z,3.40
2023-05-25T17:15:23.709Z,3.17
2023-05-25T17:20:25.462Z,2.90
2023-05-25T17:25:28.223Z,3.47
2023-05-25T17:30:30.040Z,3.33
2023-05-25T17:35:31.709Z,3.00
2023-05-25T17:40:33.402Z,3.42
2023-05-25T17:45:35.158Z,3.28
2023-05-25T17:50:36.878Z,3.35
2023-05-25T17:55:38.747Z,3.40
2023-05-25T18:00:40.444Z,3.60
2023-05-25T18:05:42.255Z,3.60
2023-05-25T18:10:44.082Z,3.10
2023-05-25T18:15:46.090Z,3.58
2023-05-25T18:20:48.134Z,3.45
2023-05-25T18:25:49.900Z,3.13
2023-05-25T18:30:51.628Z,3.30
2023-05-25T18:35:53.325Z,3.40
2023-05-25T18:40:54.964Z,3.55
2023-05-25T18:45:56.738Z,3.47
2023-05-25T18:50:58.492Z,3.45
2023-05-25T18:56:00.138Z,3.20
2023-05-25T19:01:01.981Z,3.25
2023-05-25T19:06:03.860Z,3.92
2023-05-25T19:11:05.845Z,3.67
2023-05-25T19:16:08.734Z,3.63
2023-05-25T19:21:10.528Z,3.80
2023-05-25T19:26:12.428Z,4.15
2023-05-25T19:31:14.133Z,4.10
2023-05-25T19:36:16.181Z,4.13
2023-05-25T19:41:17.882Z,3.60
2023-05-25T19:46:19.692Z,3.93
2023-05-25T19:51:21.424Z,3.90
2023-05-25T19:56:23.114Z,4.37
2023-05-25T20:01:24.867Z,4.38
2023-05-25T20:06:26.629Z,4.30
2023-05-25T20:11:28.440Z,4.60
2023-05-25T20:16:30.117Z,4.13
2023-05-25T20:21:31.860Z,4.97
2023-05-25T20:26:34.187Z,4.50
2023-05-25T20:31:35.841Z,4.40
2023-05-25T20:36:38.200Z,4.80
2023-05-25T20:41:39.944Z,4.13
2023-05-25T20:46:42.296Z,4.80
2023-05-25T20:51:49.939Z,4.63
2023-05-25T20:56:51.696Z,4.20
2023-05-25T21:01:53.451Z,4.63
2023-05-25T21:06:55.294Z,4.93
2023-05-25T21:11:57.147Z,4.70
2023-05-25T21:16:58.748Z,4.83
2023-05-25T21:22:00.493Z,4.97
2023-05-25T21:27:02.485Z,5.00
2023-05-25T21:32:04.404Z,5.10
2023-05-25T21:37:06.111Z,4.77
2023-05-25T21:42:07.832Z,4.40
2023-05-25T21:47:09.542Z,4.87
2023-05-25T21:52:11.413Z,4.27
2023-05-25T21:57:13.212Z,4.23
2023-05-25T22:02:14.921Z,4.43
2023-05-25T22:07:16.684Z,4.20
2023-05-25T22:12:20.314Z,4.13
2023-05-25T22:17:22.075Z,4.53
2023-05-25T22:22:24.000Z,4.20
2023-05-25T22:27:26.308Z,4.30
2023-05-25T22:32:28.050Z,4.13
2023-05-25T22:37:29.760Z,4.27
2023-05-25T22:42:31.683Z,4.33
2023-05-25T22:47:33.365Z,4.50
2023-05-25T22:52:35.060Z,4.50
2023-05-25T22:57:36.986Z,4.60
2023-05-25T23:02:38.815Z,4.27
2023-05-25T23:07:41.411Z,4.30
2023-05-25T23:12:43.133Z,4.97
2023-05-25T23:17:44.772Z,4.00
2023-05-25T23:22:46.521Z,4.70
2023-05-25T23:27:48.273Z,4.30
2023-05-25T23:32:50.015Z,4.47
2023-05-25T23:37:52.118Z,4.43
2023-05-25T23:42:53.944Z,4.67
2023-05-25T23:47:55.869Z,4.20
2023-05-25T23:52:57.586Z,4.53
2023-05-25T23:57:59.349Z,4.33
